Time;durP1;ratioP1;P1;durP2;ratioP2;P2;SDS_P1;SDS_P2;PMS_P1;PMS_P2;Temp;Humidity;BMP_temperature;BMP_pressure;BME280_temperature;BME280_humidity;BME280_pressure;Samples;Min_cycle;Max_cycle;Signal;HPM_P1;HPM_P2
2021/05/22 00:00:37;;;;;;;1.62;1.17;;;;;;;9.54;76.35;97751.83;1610971;87;21155;-62
2021/05/22 00:03:05;;;;;;;1.72;1.40;;;;;;;9.58;76.01;97746.35;1610981;87;21135;-62
2021/05/22 00:05:32;;;;;;;2.08;1.05;;;;;;;9.57;76.27;97741.67;1611439;87;21072;-63
2021/05/22 00:08:00;;;;;;;4.53;0.93;;;;;;;9.58;75.40;97741.98;1592241;89;21195;-66
2021/05/22 00:10:27;;;;;;;2.20;1.30;;;;;;;9.63;74.46;97747.58;1611878;87;21096;-63
2021/05/22 00:12:54;;;;;;;1.72;1.40;;;;;;;9.67;74.08;97750.70;1611599;87;21136;-63
2021/05/22 00:15:21;;;;;;;3.75;1.30;;;;;;;9.69;75.06;97756.58;1611605;87;21137;-63
2021/05/22 00:17:49;;;;;;;1.62;0.80;;;;;;;9.65;75.44;97740.45;1611338;87;21616;-63
2021/05/22 00:20:16;;;;;;;1.02;0.82;;;;;;;9.65;74.75;97741.75;1611426;88;22264;-63
2021/05/22 00:22:44;;;;;;;3.58;0.82;;;;;;;9.64;75.23;97744.03;1611161;88;21499;-63
2021/05/22 00:25:14;;;;;;;1.57;1.05;;;;;;;9.58;75.07;97739.39;1611071;87;21056;-63
2021/05/22 00:27:42;;;;;;;2.10;1.30;;;;;;;9.56;76.01;97741.80;1611192;88;21563;-63
2021/05/22 00:30:15;;;;;;;1.62;1.12;;;;;;;9.48;76.14;97747.70;1610931;87;21729;-64
2021/05/22 00:32:42;;;;;;;1.40;0.82;;;;;;;9.34;77.27;97755.89;1611069;87;21104;-62
2021/05/22 00:35:10;;;;;;;1.77;1.00;;;;;;;9.37;76.24;97749.16;1611273;87;21211;-62
2021/05/22 00:37:37;;;;;;;1.75;1.17;;;;;;;9.34;75.81;97740.34;1610895;88;21136;-63
2021/05/22 00:40:07;;;;;;;1.65;1.15;;;;;;;9.31;76.50;97744.05;1611115;88;21074;-62
2021/05/22 00:42:37;;;;;;;1.17;0.75;;;;;;;9.31;76.33;97740.63;1611111;89;21131;-63
2021/05/22 00:45:18;;;;;;;0.90;0.60;;;;;;;9.27;75.74;97740.57;1610930;87;21138;-63
2021/05/22 00:47:54;;;;;;;1.52;1.00;;;;;;;9.25;75.96;97736.02;1611049;87;21104;-64
2021/05/22 00:50:37;;;;;;;1.72;0.80;;;;;;;9.18;76.40;97738.84;1611116;87;21072;-64
2021/05/22 00:53:06;;;;;;;2.87;0.78;;;;;;;9.08;76.52;97739.31;1611269;88;21044;-63
2021/05/22 00:55:34;;;;;;;4.22;0.90;;;;;;;9.06;76.61;97743.36;1610911;87;21591;-63
2021/05/22 00:58:04;;;;;;;1.82;1.30;;;;;;;9.02;76.89;97736.34;1610925;87;21655;-63
2021/05/22 01:00:50;;;;;;;2.40;0.78;;;;;;;8.99;76.97;97741.78;1610976;87;21120;-62
2021/05/22 01:03:20;;;;;;;1.63;0.70;;;;;;;8.90;77.66;97737.44;1611179;87;21091;-63
2021/05/22 01:05:47;;;;;;;0.85;0.60;;;;;;;8.94;76.86;97741.39;1610840;87;21467;-63
2021/05/22 01:08:20;;;;;;;1.98;1.05;;;;;;;8.89;77.59;97734.98;1611023;87;21128;-63
2021/05/22 01:10:52;;;;;;;0.80;0.50;;;;;;;8.91;77.48;97729.99;1609567;87;21096;-62
2021/05/22 01:13:19;;;;;;;1.92;1.17;;;;;;;8.89;77.24;97724.63;1610426;87;21108;-63
2021/05/22 01:15:50;;;;;;;1.80;0.90;;;;;;;8.91;77.21;97720.93;1611080;88;21128;-64
2021/05/22 01:18:17;;;;;;;0.93;0.70;;;;;;;8.93;76.96;97718.21;1611003;87;21091;-62
2021/05/22 01:20:57;;;;;;;1.25;0.72;;;;;;;8.91;77.14;97713.66;1611100;89;21103;-63
2021/05/22 01:23:40;;;;;;;10.55;1.10;;;;;;;8.91;76.99;97709.27;1611147;89;21135;-63
2021/05/22 01:26:08;;;;;;;1.62;0.72;;;;;;;8.90;76.51;97715.44;1605390;89;21128;-63
2021/05/22 01:28:35;;;;;;;0.57;0.57;;;;;;;8.89;76.48;97712.50;1611076;87;21572;-62
2021/05/22 01:31:06;;;;;;;1.57;0.80;;;;;;;8.90;77.35;97710.73;1611166;87;21089;-62
2021/05/22 01:33:35;;;;;;;1.30;1.07;;;;;;;8.90;76.85;97719.79;1611029;87;21124;-63
2021/05/22 01:36:02;;;;;;;2.40;1.00;;;;;;;8.88;76.69;97719.91;1611037;87;21060;-65
2021/05/22 01:38:29;;;;;;;0.93;0.72;;;;;;;8.83;77.49;97708.36;1611121;87;21100;-62
2021/05/22 01:40:56;;;;;;;1.35;1.05;;;;;;;8.80;77.35;97706.84;1611121;87;21242;-62
2021/05/22 01:43:23;;;;;;;1.87;1.10;;;;;;;8.76;77.79;97711.95;1611326;87;21123;-62
2021/05/22 01:45:52;;;;;;;4.92;1.20;;;;;;;8.71;77.97;97720.63;1611142;87;21694;-62
2021/05/22 01:48:23;;;;;;;1.95;1.30;;;;;;;8.69;77.67;97712.64;1611264;87;21071;-63
2021/05/22 01:51:05;;;;;;;1.62;1.10;;;;;;;8.71;77.31;97710.27;1611107;87;21599;-63
2021/05/22 01:53:36;;;;;;;1.52;0.93;;;;;;;8.69;77.16;97708.75;1611226;87;21581;-62
2021/05/22 01:56:05;;;;;;;1.67;1.12;;;;;;;8.63;77.38;97704.95;1610719;88;21580;-63
2021/05/22 01:58:33;;;;;;;1.22;0.90;;;;;;;8.60;77.57;97701.33;1610483;88;21102;-63
2021/05/22 02:01:00;;;;;;;2.87;1.17;;;;;;;8.56;78.25;97696.08;1610718;88;21634;-62
2021/05/22 02:03:35;;;;;;;1.20;0.95;;;;;;;8.43;79.47;97696.38;1603140;88;21665;-63
2021/05/22 02:06:16;;;;;;;1.62;1.17;;;;;;;8.37;80.25;97699.95;1573983;90;21097;-62
2021/05/22 02:08:45;;;;;;;1.65;1.12;;;;;;;8.37;79.91;97696.08;1604269;89;21099;-62
2021/05/22 02:11:13;;;;;;;1.67;1.15;;;;;;;8.29;80.84;97700.63;1601946;88;21602;-62
2021/05/22 02:13:44;;;;;;;2.22;1.40;;;;;;;8.32;79.91;97698.27;1602079;88;21243;-62
2021/05/22 02:16:14;;;;;;;1.82;1.10;;;;;;;8.15;79.74;97674.31;1601819;89;21070;-62
2021/05/22 02:18:43;;;;;;;1.02;0.90;;;;;;;8.26;79.88;97703.94;1601762;88;21222;-62
2021/05/22 02:21:11;;;;;;;2.20;0.90;;;;;;;8.26;78.69;97708.64;1601852;89;21047;-62
2021/05/22 02:23:47;;;;;;;1.35;0.95;;;;;;;8.26;78.35;97715.58;1601967;88;21051;-62
2021/05/22 02:26:15;;;;;;;1.52;0.82;;;;;;;8.24;78.13;97718.31;1602037;89;21106;-61
2021/05/22 02:28:44;;;;;;;1.90;1.00;;;;;;;8.22;77.99;97717.62;1601941;88;21149;-62
2021/05/22 02:31:12;;;;;;;1.65;1.20;;;;;;;8.18;78.52;97713.66;1601783;89;21586;-62
2021/05/22 02:33:39;;;;;;;1.00;0.95;;;;;;;8.15;77.88;97712.64;1601866;89;21590;-62
2021/05/22 02:36:08;;;;;;;2.15;1.30;;;;;;;8.15;77.66;97704.06;1601849;89;21055;-62
2021/05/22 02:38:50;;;;;;;3.25;0.85;;;;;;;8.14;77.40;97712.29;1601939;89;21150;-62
2021/05/22 02:41:20;;;;;;;2.33;1.00;;;;;;;8.15;78.11;97716.99;1601743;89;21154;-62
2021/05/22 02:43:51;;;;;;;1.92;1.30;;;;;;;8.13;78.09;97720.20;1602033;89;21118;-63
2021/05/22 02:46:22;;;;;;;1.50;1.20;;;;;;;8.06;78.60;97720.72;1601355;88;21079;-62
2021/05/22 02:48:51;;;;;;;0.95;0.82;;;;;;;8.03;80.35;97723.58;1601908;88;21833;-63
2021/05/22 02:51:22;;;;;;;1.55;1.05;;;;;;;8.02;79.29;97724.98;1601854;88;21598;-63
2021/05/22 02:53:50;;;;;;;5.90;1.32;;;;;;;8.03;78.43;97726.16;1602014;89;21209;-62
2021/05/22 02:56:18;;;;;;;4.30;1.35;;;;;;;8.02;78.41;97728.87;1601922;88;21132;-62
2021/05/22 02:58:47;;;;;;;1.85;1.32;;;;;;;8.02;78.32;97727.58;1599427;89;21588;-63
2021/05/22 03:01:14;;;;;;;1.45;0.90;;;;;;;8.00;79.06;97731.61;1610672;87;21099;-63
2021/05/22 03:03:42;;;;;;;1.92;1.35;;;;;;;7.98;78.85;97729.61;1611200;87;21151;-62
2021/05/22 03:06:09;;;;;;;2.58;1.57;;;;;;;8.00;78.80;97734.66;1611128;87;21159;-66
2021/05/22 03:08:48;;;;;;;1.50;1.20;;;;;;;7.99;79.85;97726.08;1611012;88;21107;-62
2021/05/22 03:11:18;;;;;;;2.02;1.10;;;;;;;8.00;78.59;97721.27;1611590;87;21627;-62
2021/05/22 03:13:45;;;;;;;1.50;1.25;;;;;;;8.03;79.94;97715.81;1611109;87;21124;-65
2021/05/22 03:16:13;;;;;;;1.05;0.85;;;;;;;8.04;79.57;97716.17;1599642;87;21099;-62
2021/05/22 03:18:40;;;;;;;1.17;1.05;;;;;;;8.04;79.19;97722.63;1611089;87;21108;-62
2021/05/22 03:21:07;;;;;;;1.42;0.95;;;;;;;8.06;78.95;97720.72;1611168;87;21091;-64
2021/05/22 03:23:34;;;;;;;1.50;0.88;;;;;;;8.06;79.06;97725.89;1609727;87;21096;-63
2021/05/22 03:26:01;;;;;;;1.98;1.40;;;;;;;8.08;79.04;97723.19;1610888;89;21170;-62
2021/05/22 03:28:28;;;;;;;4.25;1.00;;;;;;;8.08;79.48;97720.13;1610874;87;21171;-64
2021/05/22 03:30:55;;;;;;;1.25;0.98;;;;;;;8.09;80.33;97718.36;1610748;87;21096;-64
2021/05/22 03:33:22;;;;;;;1.07;0.98;;;;;;;8.15;79.57;97722.16;1611020;87;21076;-63
2021/05/22 03:35:49;;;;;;;1.45;1.35;;;;;;;8.19;78.95;97725.66;1611238;87;21615;-64
2021/05/22 03:38:16;;;;;;;3.08;1.77;;;;;;;8.25;78.24;97736.74;1611093;87;21616;-64
2021/05/22 03:40:45;;;;;;;5.20;1.30;;;;;;;8.28;80.53;97746.03;1610689;87;21107;-64
2021/05/22 03:43:12;;;;;;;3.70;1.05;;;;;;;8.29;80.15;97742.03;1610658;87;21101;-64
2021/05/22 03:45:39;;;;;;;1.72;1.10;;;;;;;8.33;79.38;97750.34;1611109;87;21084;-64
2021/05/22 03:48:07;;;;;;;4.45;1.20;;;;;;;8.41;79.07;97759.54;1611024;87;21084;-63
2021/05/22 03:50:34;;;;;;;1.75;0.98;;;;;;;8.46;78.86;97754.80;1610620;87;21099;-62
2021/05/22 03:53:00;;;;;;;1.30;1.20;;;;;;;8.53;79.12;97751.53;1610552;87;21072;-63
2021/05/22 03:55:27;;;;;;;0.85;0.72;;;;;;;8.60;79.55;97745.83;1610329;87;21178;-63
2021/05/22 03:57:54;;;;;;;2.12;1.35;;;;;;;8.67;79.68;97745.63;1610795;88;21151;-63
2021/05/22 04:00:22;;;;;;;2.12;1.37;;;;;;;8.69;80.01;97747.11;1611067;87;21112;-63
2021/05/22 04:02:49;;;;;;;1.17;1.00;;;;;;;8.70;80.00;97747.94;1611175;87;21080;-63
2021/05/22 04:05:16;;;;;;;2.02;1.32;;;;;;;8.75;79.34;97752.23;1610717;87;21107;-63
2021/05/22 04:07:43;;;;;;;2.83;1.55;;;;;;;8.80;79.18;97752.15;1611155;87;21594;-63
2021/05/22 04:10:11;;;;;;;3.55;1.42;;;;;;;8.90;78.98;97757.34;1610153;87;21267;-63
2021/05/22 04:12:38;;;;;;;3.37;2.12;;;;;;;9.00;78.65;97758.14;1610309;87;21088;-63
2021/05/22 04:15:06;;;;;;;2.77;1.72;;;;;;;9.06;78.61;97759.69;1610972;89;21120;-63
2021/05/22 04:17:33;;;;;;;1.27;1.15;;;;;;;9.20;77.96;97758.94;1610606;88;21114;-63
2021/05/22 04:20:00;;;;;;;1.32;1.07;;;;;;;9.32;77.54;97756.05;1611072;87;21108;-63
2021/05/22 04:22:27;;;;;;;1.67;1.35;;;;;;;9.49;77.07;97757.11;1595610;90;21721;-63
2021/05/22 04:24:54;;;;;;;2.52;1.60;;;;;;;9.69;76.64;97762.55;1606696;87;21730;-64
2021/05/22 04:27:21;;;;;;;2.12;1.60;;;;;;;9.87;75.94;97765.23;1611159;87;21092;-64
2021/05/22 04:29:48;;;;;;;2.00;1.20;;;;;;;10.03;75.63;97769.33;1591471;89;21099;-63
2021/05/22 04:32:15;;;;;;;2.75;1.57;;;;;;;10.14;74.76;97763.94;1610877;87;21100;-63
2021/05/22 04:34:42;;;;;;;4.20;1.80;;;;;;;10.21;73.90;97758.53;1611018;87;21107;-62
2021/05/22 04:37:09;;;;;;;2.50;1.42;;;;;;;10.37;73.60;97760.49;1611068;89;21615;-63
2021/05/22 04:39:36;;;;;;;2.12;1.67;;;;;;;10.58;73.63;97758.93;1611180;87;21432;-62
2021/05/22 04:42:03;;;;;;;2.08;1.65;;;;;;;10.79;73.37;97757.66;1610892;89;21131;-64
2021/05/22 04:44:30;;;;;;;2.58;1.65;;;;;;;11.00;73.01;97754.77;1611035;87;21544;-64
2021/05/22 04:46:57;;;;;;;3.35;2.45;;;;;;;11.21;72.32;97754.41;1611016;87;21639;-63
2021/05/22 04:49:27;;;;;;;3.35;2.10;;;;;;;11.27;70.95;97763.74;1611156;87;21112;-64
2021/05/22 04:51:52;;;;;;;3.58;1.50;;;;;;;11.25;70.30;97762.24;1611001;87;21206;-63
2021/05/22 04:54:19;;;;;;;4.00;2.33;;;;;;;11.35;70.55;97747.38;1611119;89;21132;-62
2021/05/22 04:56:46;;;;;;;3.20;2.17;;;;;;;11.30;70.48;97754.33;1610885;89;21112;-64
2021/05/22 04:59:13;;;;;;;2.42;1.67;;;;;;;11.44;70.36;97762.05;1607192;87;21141;-62
2021/05/22 05:01:42;;;;;;;6.85;2.50;;;;;;;11.55;70.02;97756.62;1601728;89;21150;-64
2021/05/22 05:04:09;;;;;;;2.98;2.25;;;;;;;11.49;70.22;97754.61;1601942;88;21567;-63
2021/05/22 05:06:37;;;;;;;2.85;1.75;;;;;;;11.49;69.78;97752.02;1602045;88;21159;-63
2021/05/22 05:09:06;;;;;;;5.33;3.12;;;;;;;11.53;70.10;97755.12;1601914;89;21070;-63
2021/05/22 05:11:33;;;;;;;2.98;2.12;;;;;;;11.59;70.26;97755.83;1601828;88;21515;-62
2021/05/22 05:14:00;;;;;;;4.87;1.75;;;;;;;11.80;69.89;97760.17;1601854;88;21139;-62
2021/05/22 05:16:28;;;;;;;3.22;1.72;;;;;;;11.93;69.38;97757.16;1601913;89;21079;-62
2021/05/22 05:18:55;;;;;;;5.92;3.47;;;;;;;11.95;68.94;97760.41;1602106;88;21114;-63
2021/05/22 05:21:22;;;;;;;3.65;1.95;;;;;;;12.04;69.24;97767.28;1601911;88;21106;-63
2021/05/22 05:23:49;;;;;;;2.00;1.30;;;;;;;12.22;68.86;97768.81;1602115;89;21094;-63
2021/05/22 05:26:16;;;;;;;2.83;1.72;;;;;;;12.37;68.22;97767.23;1601899;89;21113;-63
2021/05/22 05:28:43;;;;;;;2.33;1.90;;;;;;;12.16;69.04;97775.15;1602117;88;21063;-62
2021/05/22 05:31:10;;;;;;;4.87;2.08;;;;;;;12.28;68.38;97777.80;1602015;88;21137;-63
2021/05/22 05:33:37;;;;;;;3.70;2.05;;;;;;;12.12;69.41;97788.14;1602076;88;21118;-63
2021/05/22 05:36:04;;;;;;;4.28;2.12;;;;;;;12.26;68.81;97785.75;1602080;89;21603;-63
2021/05/22 05:38:31;;;;;;;2.47;1.92;;;;;;;12.20;69.26;97785.58;1601845;89;21169;-63
2021/05/22 05:40:58;;;;;;;4.00;1.80;;;;;;;12.18;69.57;97789.63;1601940;88;21091;-63
2021/05/22 05:43:26;;;;;;;2.20;2.00;;;;;;;12.17;69.81;97791.92;1625226;87;21084;-63
2021/05/22 05:45:53;;;;;;;2.25;1.67;;;;;;;12.18;69.76;97796.62;1626504;86;21152;-64
2021/05/22 05:48:19;;;;;;;3.08;1.90;;;;;;;12.27;69.62;97787.88;1626302;87;21664;-65
2021/05/22 05:50:46;;;;;;;3.67;2.42;;;;;;;12.26;69.82;97789.66;1626476;88;21186;-63
2021/05/22 05:53:13;;;;;;;4.65;2.17;;;;;;;12.34;69.92;97786.27;1626431;87;21196;-63
2021/05/22 05:55:40;;;;;;;6.15;2.87;;;;;;;12.39;69.42;97782.71;1626310;88;21092;-63
2021/05/22 05:58:07;;;;;;;2.27;1.42;;;;;;;12.33;70.29;97789.87;1628660;87;21196;-63
2021/05/22 06:00:34;;;;;;;3.77;2.25;;;;;;;12.51;69.88;97792.35;1635862;88;21112;-63
2021/05/22 06:03:01;;;;;;;4.50;2.27;;;;;;;12.55;70.20;97796.27;1638096;86;21199;-62
2021/05/22 06:05:28;;;;;;;2.80;2.08;;;;;;;12.52;70.21;97793.50;1640170;86;21069;-64
2021/05/22 06:07:54;;;;;;;5.90;2.17;;;;;;;12.70;69.76;97790.28;1640087;86;21088;-65
2021/05/22 06:10:21;;;;;;;3.65;1.95;;;;;;;12.72;69.72;97784.92;1640107;86;21100;-66
2021/05/22 06:12:49;;;;;;;3.45;1.98;;;;;;;12.84;69.76;97789.64;1640140;86;21592;-66
2021/05/22 06:17:44;;;;;;;4.20;2.42;;;;;;;13.11;69.97;97792.46;1640511;86;21097;-66
2021/05/22 06:20:32;;;;;;;5.92;2.40;;;;;;;13.24;69.55;97790.67;1640246;87;21120;-66
2021/05/22 06:23:00;;;;;;;2.40;1.62;;;;;;;13.27;69.72;97791.16;1634233;86;21627;-65
2021/05/22 06:25:27;;;;;;;2.67;1.85;;;;;;;13.47;68.72;97789.03;1667541;86;21095;-66
2021/05/22 06:27:53;;;;;;;3.20;2.25;;;;;;;13.46;68.76;97787.39;1667456;86;21067;-65
2021/05/22 06:30:22;;;;;;;2.72;1.77;;;;;;;13.62;68.76;97778.24;1666914;86;21063;-64
2021/05/22 06:32:49;;;;;;;3.05;2.00;;;;;;;13.76;68.52;97778.89;1667268;86;21134;-67
2021/05/22 06:35:15;;;;;;;3.12;1.98;;;;;;;13.79;68.74;97783.77;1638473;86;21142;-66
2021/05/22 06:37:42;;;;;;;3.10;2.35;;;;;;;13.75;69.16;97780.34;1659479;86;21107;-66
2021/05/22 06:40:12;;;;;;;5.62;1.77;;;;;;;13.82;68.89;97783.09;1641061;86;21091;-64
2021/05/22 06:42:39;;;;;;;2.47;1.60;;;;;;;14.05;68.09;97789.22;1640975;86;21142;-64
2021/05/22 06:45:11;;;;;;;2.15;1.40;;;;;;;14.27;67.38;97780.67;1641066;87;21138;-65
2021/05/22 06:47:37;;;;;;;2.22;1.67;;;;;;;14.44;66.73;97777.50;1634498;88;21131;-65
2021/05/22 06:50:05;;;;;;;2.52;1.80;;;;;;;14.50;65.95;97772.42;1634486;87;21114;-65
2021/05/22 06:52:32;;;;;;;1.92;1.47;;;;;;;14.62;66.30;97765.00;1662563;86;21601;-64
2021/05/22 06:54:59;;;;;;;3.60;2.35;;;;;;;14.61;65.46;97771.20;1662497;86;21135;-65
2021/05/22 06:57:26;;;;;;;4.78;1.98;;;;;;;14.80;65.73;97770.77;1662558;86;21095;-65
2021/05/22 06:59:53;;;;;;;3.05;1.65;;;;;;;14.71;65.83;97767.37;1662726;86;21170;-64
2021/05/22 07:02:20;;;;;;;4.72;1.45;;;;;;;14.97;64.89;97763.62;1662722;86;21103;-64
2021/05/22 07:04:47;;;;;;;1.87;1.40;;;;;;;15.03;64.14;97763.73;1662567;86;21135;-64
2021/05/22 07:07:14;;;;;;;2.12;1.32;;;;;;;15.29;63.09;97760.72;1634842;87;21139;-68
2021/05/22 07:09:41;;;;;;;1.70;1.50;;;;;;;15.71;61.71;97756.77;1662743;86;21120;-65
2021/05/22 07:12:10;;;;;;;6.40;1.15;;;;;;;15.77;60.74;97752.11;1634402;87;21161;-65
2021/05/22 07:14:38;;;;;;;2.47;1.17;;;;;;;15.96;61.03;97755.50;1634464;86;21597;-64
2021/05/22 07:17:05;;;;;;;1.37;0.93;;;;;;;16.11;59.59;97764.16;1634395;87;21099;-64
2021/05/22 07:19:32;;;;;;;5.87;1.27;;;;;;;16.35;60.00;97766.48;1662263;86;21592;-64
2021/05/22 07:21:59;;;;;;;4.20;1.20;;;;;;;16.54;58.79;97754.59;1675083;83;21144;-66
2021/05/22 07:24:26;;;;;;;3.58;1.60;;;;;;;16.48;57.38;97746.17;1686038;85;21148;-65
2021/05/22 07:30:14;;;;;;;2.17;1.35;;;;;;;16.74;57.96;97738.61;1706316;84;21084;-65
2021/05/22 07:35:36;;;;;;;2.02;1.20;;;;;;;16.89;56.81;97738.05;1690780;84;21536;-64
2021/05/22 07:38:02;;;;;;;3.50;1.10;;;;;;;17.34;54.16;97735.52;1679107;83;21660;-64
2021/05/22 07:40:29;;;;;;;5.65;1.02;;;;;;;17.53;53.95;97737.47;1702775;84;21048;-66
2021/05/22 07:42:56;;;;;;;1.32;1.12;;;;;;;17.61;52.37;97735.23;1705301;84;21079;-65
2021/05/22 07:45:23;;;;;;;3.42;1.27;;;;;;;17.66;51.57;97740.72;1702497;84;21555;-65
2021/05/22 07:47:50;;;;;;;1.47;0.85;;;;;;;17.72;51.04;97739.94;1673308;84;21044;-63
2021/05/22 07:50:18;;;;;;;2.15;1.35;;;;;;;18.08;51.63;97741.05;1694097;84;21049;-63
2021/05/22 07:52:45;;;;;;;2.90;1.77;;;;;;;18.28;50.57;97727.48;1696714;84;21102;-65
2021/05/22 07:55:13;;;;;;;1.92;0.85;;;;;;;18.12;51.00;97725.20;1703024;84;21108;-64
2021/05/22 07:57:41;;;;;;;2.62;1.30;;;;;;;18.28;49.64;97727.48;1705215;83;21579;-66
2021/05/22 08:00:10;;;;;;;2.30;1.42;;;;;;;18.48;49.51;97720.98;1705525;83;21068;-65
2021/05/22 08:02:37;;;;;;;6.08;3.22;;;;;;;18.36;49.63;97715.48;1705332;84;21119;-66
2021/05/22 08:05:06;;;;;;;10.60;4.65;;;;;;;18.67;48.29;97715.48;1705240;84;21150;-68
2021/05/22 08:07:34;;;;;;;3.62;2.62;;;;;;;19.09;48.18;97713.81;1705282;83;21055;-66
2021/05/22 08:10:02;;;;;;;18.10;9.13;;;;;;;19.32;47.68;97712.89;1705249;84;21079;-66
2021/05/22 08:12:29;;;;;;;2.62;2.27;;;;;;;19.53;48.03;97712.40;1705547;83;21485;-71
2021/05/22 08:14:56;;;;;;;3.08;1.50;;;;;;;19.64;47.45;97717.03;1690615;84;21082;-71
2021/05/22 08:17:23;;;;;;;2.00;1.35;;;;;;;19.58;47.16;97720.47;1686698;85;21149;-73
2021/05/22 08:19:50;;;;;;;1.80;1.10;;;;;;;19.76;47.87;97708.30;1686531;85;21086;-71
2021/05/22 08:22:17;;;;;;;3.77;1.52;;;;;;;20.02;46.89;97706.59;1681791;84;21726;-71
2021/05/22 08:24:44;;;;;;;1.27;1.10;;;;;;;20.13;45.98;97704.11;1689270;84;21055;-72
2021/05/22 08:27:11;;;;;;;1.67;1.27;;;;;;;20.39;46.80;97702.41;1658109;86;21106;-72
2021/05/22 08:29:38;;;;;;;1.30;1.20;;;;;;;20.14;45.99;97702.28;1658309;85;21249;-72
2021/05/22 08:32:06;;;;;;;1.87;1.10;;;;;;;20.50;45.34;97695.14;1658554;85;21606;-70
2021/05/22 08:34:35;;;;;;;1.52;1.07;;;;;;;20.62;43.24;97696.88;1674844;84;21072;-72
2021/05/22 08:41:04;;;;;;;2.95;0.95;;;;;;;20.99;42.71;97699.17;1684824;85;21063;-68
2021/05/22 08:47:02;;;;;;;2.55;0.75;;;;;;;21.28;41.73;97699.08;1684838;85;21100;-64
2021/05/22 08:52:59;;;;;;;3.12;1.10;;;;;;;21.74;39.24;97689.38;1684762;85;21651;-66
2021/05/22 08:59:20;;;;;;;2.17;0.95;;;;;;;21.11;39.56;97686.08;1685225;85;21095;-65
2021/05/22 09:05:54;;;;;;;1.17;0.82;;;;;;;21.93;39.78;97671.19;1684778;85;21083;-64
2021/05/22 09:25:56;;;;;;;4.12;0.98;;;;;;;22.39;39.08;97657.88;1689782;85;21530;-65
2021/05/22 09:38:59;;;;;;;2.22;1.37;;;;;;;23.15;35.97;97650.80;1643451;87;21666;-63
2021/05/22 09:45:52;;;;;;;1.20;1.00;;;;;;;23.27;34.83;97648.70;1643068;86;21102;-65
2021/05/22 09:48:24;;;;;;;1.47;0.70;;;;;;;23.30;35.82;97644.26;1636438;86;21113;-64
2021/05/22 09:50:53;;;;;;;1.05;0.95;;;;;;;23.57;34.08;97657.34;1637158;86;21253;-64
2021/05/22 09:53:26;;;;;;;1.55;0.72;;;;;;;23.88;33.52;97650.83;1640156;86;21595;-65
2021/05/22 09:56:20;;;;;;;1.50;1.20;;;;;;;23.91;33.98;97648.51;1638366;86;21124;-65
2021/05/22 09:58:51;;;;;;;3.60;0.65;;;;;;;24.54;33.44;97644.95;1652275;85;21590;-66
2021/05/22 10:01:21;;;;;;;0.95;0.70;;;;;;;25.43;34.98;97635.21;1680052;85;21166;-65
2021/05/22 10:03:49;;;;;;;0.62;0.62;;;;;;;25.71;30.97;97652.38;1680609;85;21456;-65
2021/05/22 10:06:16;;;;;;;0.98;0.70;;;;;;;25.35;28.75;97650.25;1681558;84;21094;-65
2021/05/22 10:08:45;;;;;;;2.02;0.80;;;;;;;25.79;25.01;97642.64;1680850;85;21201;-65
2021/05/22 10:11:12;;;;;;;0.80;0.70;;;;;;;25.80;24.08;97631.45;1663629;86;21166;-65
2021/05/22 10:13:42;;;;;;;0.95;0.68;;;;;;;25.95;25.19;97653.72;1663750;86;21139;-66
2021/05/22 10:16:10;;;;;;;0.78;0.78;;;;;;;26.07;24.29;97641.62;1663708;86;21651;-66
2021/05/22 10:18:37;;;;;;;1.15;0.70;;;;;;;26.23;26.57;97631.97;1663559;86;21600;-64
2021/05/22 10:21:05;;;;;;;1.77;0.90;;;;;;;25.79;23.77;97636.52;1663760;85;21079;-64
2021/05/22 10:23:32;;;;;;;3.02;0.70;;;;;;;25.76;24.72;97633.80;1664056;84;21136;-65
2021/05/22 10:26:00;;;;;;;0.68;0.60;;;;;;;25.67;24.68;97625.19;1663758;86;21194;-64
2021/05/22 10:28:27;;;;;;;0.72;0.70;;;;;;;25.74;24.41;97631.93;1663669;85;21075;-64
2021/05/22 10:30:55;;;;;;;1.62;0.88;;;;;;;25.83;25.09;97613.69;1663857;85;21198;-65
2021/05/22 10:33:24;;;;;;;0.78;0.60;;;;;;;25.75;27.79;97622.91;1663781;84;21570;-64
2021/05/22 10:35:56;;;;;;;1.40;0.50;;;;;;;25.32;24.25;97606.36;1663913;84;21083;-65
2021/05/22 10:38:36;;;;;;;1.20;0.90;;;;;;;25.33;23.52;97607.17;1663710;84;21561;-66
2021/05/22 10:41:12;;;;;;;2.80;0.70;;;;;;;25.47;24.38;97609.75;1663795;86;21318;-64
2021/05/22 10:43:55;;;;;;;1.25;0.70;;;;;;;26.02;26.80;97599.53;1663612;86;21194;-66
2021/05/22 10:46:21;;;;;;;0.78;0.65;;;;;;;26.57;27.97;97601.97;1666614;84;21087;-65
2021/05/22 10:48:53;;;;;;;0.60;0.60;;;;;;;26.95;26.03;97596.97;1700703;84;21153;-66
2021/05/22 10:51:35;;;;;;;2.40;0.62;;;;;;;27.45;25.82;97594.61;1702014;84;21054;-65
2021/05/22 10:54:14;;;;;;;0.65;0.53;;;;;;;27.87;24.83;97585.73;1702237;84;21570;-66
2021/05/22 10:57:03;;;;;;;0.55;0.50;;;;;;;28.07;22.04;97591.13;1701993;84;21090;-65
2021/05/22 10:59:30;;;;;;;0.53;0.50;;;;;;;27.91;21.31;97588.14;1702518;84;21082;-66
2021/05/22 11:01:57;;;;;;;1.55;0.60;;;;;;;28.33;21.13;97581.34;1702126;84;21578;-65
2021/05/22 11:04:29;;;;;;;0.88;0.62;;;;;;;27.70;21.50;97588.06;1702060;84;21602;-65
2021/05/22 11:07:16;;;;;;;0.55;0.50;;;;;;;27.80;21.66;97575.31;1702237;84;21059;-63
2021/05/22 11:09:45;;;;;;;2.00;0.50;;;;;;;27.77;21.07;97574.50;1702042;84;21122;-65
2021/05/22 11:12:25;;;;;;;0.53;0.50;;;;;;;27.61;21.26;97566.98;1702234;84;21146;-65
2021/05/22 11:14:53;;;;;;;0.65;0.62;;;;;;;27.94;21.28;97572.96;1701844;84;21254;-65
2021/05/22 11:17:26;;;;;;;0.55;0.50;;;;;;;28.75;21.38;97569.91;1702295;84;21078;-66
2021/05/22 11:20:10;;;;;;;1.15;0.62;;;;;;;29.14;19.98;97572.79;1702415;84;21574;-66
2021/05/22 11:22:46;;;;;;;0.85;0.50;;;;;;;29.61;21.78;97561.14;1702299;84;21110;-65
2021/05/22 11:25:17;;;;;;;1.57;0.60;;;;;;;29.92;19.47;97569.85;1701725;84;21055;-65
2021/05/22 11:28:00;;;;;;;0.60;0.60;;;;;;;28.39;20.18;97570.92;1702201;84;21074;-65
2021/05/22 11:30:35;;;;;;;0.53;0.50;;;;;;;28.58;19.93;97559.45;1702011;84;21082;-64
2021/05/22 11:33:07;;;;;;;0.85;0.75;;;;;;;29.11;19.58;97562.61;1700238;84;21323;-64
2021/05/22 11:35:47;;;;;;;0.88;0.55;;;;;;;28.58;20.13;97555.44;1702085;84;21074;-65
2021/05/22 11:38:23;;;;;;;0.80;0.60;;;;;;;29.57;21.52;97556.07;1701977;84;21074;-64
2021/05/22 11:40:55;;;;;;;1.07;0.78;;;;;;;29.60;18.76;97552.88;1702053;84;21121;-66
2021/05/22 11:43:33;;;;;;;1.25;0.60;;;;;;;29.96;19.74;97552.16;1702201;84;21401;-66
2021/05/22 11:46:13;;;;;;;3.15;0.65;;;;;;;30.58;18.59;97548.03;1701700;84;21562;-66
2021/05/22 11:48:44;;;;;;;1.02;0.50;;;;;;;29.96;18.53;97542.80;1701961;84;21567;-66
2021/05/22 11:51:23;;;;;;;0.60;0.60;;;;;;;29.52;19.08;97547.28;1701322;84;21114;-65
2021/05/22 11:54:03;;;;;;;0.75;0.57;;;;;;;29.63;18.94;97544.29;1701994;84;21181;-66
2021/05/22 11:56:33;;;;;;;1.67;0.80;;;;;;;29.05;19.61;97547.67;1701965;84;21066;-65
2021/05/22 11:59:02;;;;;;;0.70;0.47;;;;;;;29.06;19.85;97551.95;1701816;84;21123;-65
2021/05/22 12:01:38;;;;;;;1.25;0.60;;;;;;;28.98;19.55;97568.00;1699083;84;21099;-65
2021/05/22 12:04:11;;;;;;;0.70;0.60;;;;;;;28.57;19.96;97553.83;1699068;84;21521;-65
2021/05/22 12:06:44;;;;;;;0.65;0.45;;;;;;;28.21;20.40;97550.33;1701860;84;21576;-66
2021/05/22 12:09:26;;;;;;;1.05;0.55;;;;;;;28.08;20.71;97545.53;1698974;84;21148;-66
2021/05/22 12:12:04;;;;;;;0.75;0.68;;;;;;;27.96;20.48;97536.12;1701472;83;21576;-66
2021/05/22 12:14:46;;;;;;;21.93;13.85;;;;;;;27.89;21.01;97546.25;1701568;83;21140;-68
2021/05/22 12:17:17;;;;;;;10.18;5.65;;;;;;;28.15;20.89;97538.59;1701371;83;21079;-68
2021/05/22 12:19:48;;;;;;;3.58;2.42;;;;;;;28.01;21.38;97538.81;1701740;83;21068;-68
2021/05/22 12:22:20;;;;;;;0.90;0.78;;;;;;;28.45;21.33;97535.93;1670390;84;21072;-68
2021/05/22 12:24:46;;;;;;;0.40;0.40;;;;;;;28.38;21.24;97535.41;1700144;83;21620;-65
2021/05/22 12:27:15;;;;;;;0.80;0.70;;;;;;;28.67;21.07;97543.69;1698242;83;21103;-65
2021/05/22 12:29:49;;;;;;;0.65;0.57;;;;;;;28.51;20.25;97536.22;1721749;82;21115;-68
2021/05/22 12:32:16;;;;;;;2.47;0.68;;;;;;;28.26;20.29;97541.53;1730489;83;21083;-68
2021/05/22 12:34:43;;;;;;;1.32;0.93;;;;;;;27.91;20.95;97540.11;1730756;82;21112;-66
2021/05/22 12:37:20;;;;;;;1.20;0.60;;;;;;;28.11;20.28;97539.66;1731716;82;21219;-67
2021/05/22 12:39:51;;;;;;;0.98;0.50;;;;;;;27.99;20.75;97544.41;1732292;82;21223;-69
2021/05/22 12:42:31;;;;;;;1.57;0.50;;;;;;;27.77;21.80;97542.48;1732072;82;21149;-66
2021/05/22 12:45:03;;;;;;;0.62;0.60;;;;;;;27.93;22.58;97550.00;1732067;81;21130;-66
2021/05/22 12:47:40;;;;;;;2.87;0.47;;;;;;;27.91;22.33;97547.58;1726603;82;21088;-65